Time;durP1;ratioP1;P1;durP2;ratioP2;P2;SDS_P1;SDS_P2;PMS_P1;PMS_P2;Temp;Humidity;BMP_temperature;BMP_pressure;BME280_temperature;BME280_humidity;BME280_pressure;Samples;Min_cycle;Max_cycle;Signal;HPM_P1;HPM_P2
2022/02/16 00:00:10;;;;;;;2.60;1.23;;;;;;;;;;5084314;28;20483;-66
2022/02/16 00:02:38;;;;;;;2.88;1.20;;;;;;;;;;5066998;28;20131;-66
2022/02/16 00:05:08;;;;;;;5.43;1.20;;;;;;;;;;5070937;28;20043;-66
2022/02/16 00:07:36;;;;;;;4.07;1.25;;;;;;;;;;5072618;28;20371;-65
2022/02/16 00:10:04;;;;;;;9.38;1.65;;;;;;;;;;5074259;28;20024;-65
2022/02/16 00:12:30;;;;;;;2.95;1.13;;;;;;;;;;5092645;28;20051;-66
2022/02/16 00:14:57;;;;;;;3.93;1.10;;;;;;;;;;5092391;28;20028;-65
2022/02/16 00:17:24;;;;;;;5.67;1.20;;;;;;;;;;5088141;28;20490;-65
2022/02/16 00:19:50;;;;;;;2.23;1.30;;;;;;;;;;5087026;28;20032;-66
2022/02/16 00:22:17;;;;;;;2.67;0.80;;;;;;;;;;5067041;28;20483;-65
2022/02/16 00:24:44;;;;;;;2.83;1.23;;;;;;;;;;5067114;28;20039;-65
2022/02/16 00:27:10;;;;;;;5.27;1.33;;;;;;;;;;5070518;28;20403;-65
2022/02/16 00:29:37;;;;;;;2.90;1.30;;;;;;;;;;5071865;28;20099;-65
2022/02/16 00:32:04;;;;;;;5.63;1.73;;;;;;;;;;5089892;28;20032;-65
2022/02/16 00:34:31;;;;;;;2.17;1.17;;;;;;;;;;5092455;28;20024;-65
2022/02/16 00:36:57;;;;;;;2.10;1.17;;;;;;;;;;5092460;28;20972;-65
2022/02/16 00:39:24;;;;;;;5.10;1.30;;;;;;;;;;5088805;28;20151;-65
2022/02/16 00:41:51;;;;;;;5.43;1.37;;;;;;;;;;5070541;28;20025;-65
2022/02/16 00:44:17;;;;;;;4.87;1.43;;;;;;;;;;5066831;28;20533;-65
2022/02/16 00:46:44;;;;;;;2.03;1.30;;;;;;;;;;5066442;28;20550;-65
2022/02/16 00:49:11;;;;;;;10.50;5.37;;;;;;;;;;5078019;28;20028;-65
2022/02/16 00:51:38;;;;;;;16.13;6.73;;;;;;;;;;5092203;28;20028;-65
2022/02/16 00:54:05;;;;;;;13.17;6.80;;;;;;;;;;5092355;28;20027;-65
2022/02/16 00:56:32;;;;;;;10.60;5.53;;;;;;;;;;5092203;28;20127;-65
2022/02/16 00:58:58;;;;;;;15.57;4.63;;;;;;;;;;5085721;28;20025;-65
2022/02/16 01:01:25;;;;;;;6.73;3.43;;;;;;;;;;5069170;28;20025;-65
2022/02/16 01:03:52;;;;;;;9.33;4.77;;;;;;;;;;5066404;28;20060;-65
2022/02/16 01:06:19;;;;;;;13.53;5.27;;;;;;;;;;5067446;28;20020;-65
2022/02/16 01:08:46;;;;;;;14.13;5.47;;;;;;;;;;5066625;28;20088;-65
2022/02/16 01:11:14;;;;;;;10.37;5.17;;;;;;;;;;5068693;28;20017;-65
2022/02/16 01:13:40;;;;;;;12.37;3.73;;;;;;;;;;5071881;28;20082;-65
2022/02/16 01:16:07;;;;;;;10.70;3.77;;;;;;;;;;5077744;28;20120;-65
2022/02/16 01:18:34;;;;;;;12.20;5.43;;;;;;;;;;5092084;28;20024;-65
2022/02/16 01:21:01;;;;;;;8.57;3.73;;;;;;;;;;5089778;28;20028;-66
2022/02/16 01:23:27;;;;;;;9.27;3.07;;;;;;;;;;5089234;28;20027;-65
2022/02/16 01:25:54;;;;;;;5.00;2.20;;;;;;;;;;5086761;28;20020;-65
2022/02/16 01:28:21;;;;;;;5.20;2.67;;;;;;;;;;5086670;28;20076;-65
2022/02/16 01:30:48;;;;;;;7.07;2.80;;;;;;;;;;5085370;28;20074;-64
2022/02/16 01:33:15;;;;;;;5.40;2.77;;;;;;;;;;5087787;28;20024;-64
2022/02/16 01:35:41;;;;;;;11.07;2.83;;;;;;;;;;5087680;28;20017;-66
2022/02/16 01:38:08;;;;;;;9.03;2.13;;;;;;;;;;5071486;28;20020;-65
2022/02/16 01:40:35;;;;;;;6.27;3.00;;;;;;;;;;5071533;28;20032;-64
2022/02/16 01:43:02;;;;;;;6.63;2.57;;;;;;;;;;5071832;28;20029;-65
2022/02/16 01:45:30;;;;;;;4.30;2.37;;;;;;;;;;5074069;28;20025;-64
2022/02/16 01:47:58;;;;;;;7.77;2.87;;;;;;;;;;5090129;28;20541;-64
2022/02/16 01:50:24;;;;;;;9.27;4.00;;;;;;;;;;5088537;28;20031;-64
2022/02/16 01:52:51;;;;;;;6.00;2.63;;;;;;;;;;5070318;28;20339;-65
2022/02/16 01:55:18;;;;;;;8.57;2.77;;;;;;;;;;5070821;28;20028;-64
2022/02/16 01:57:45;;;;;;;6.87;2.00;;;;;;;;;;5074788;28;20094;-64
2022/02/16 02:00:12;;;;;;;7.33;2.23;;;;;;;;;;5075095;28;20438;-64
2022/02/16 02:02:39;;;;;;;7.13;2.60;;;;;;;;;;5086607;28;20025;-64
2022/02/16 02:05:06;;;;;;;10.60;4.00;;;;;;;;;;5095063;28;20031;-65
2022/02/16 02:07:35;;;;;;;5.80;2.63;;;;;;;;;;5074304;28;20029;-64
2022/02/16 02:10:02;;;;;;;7.53;3.53;;;;;;;;;;5069122;28;20020;-64
2022/02/16 02:12:29;;;;;;;10.77;3.00;;;;;;;;;;5069532;28;20048;-64
2022/02/16 02:14:55;;;;;;;5.37;2.60;;;;;;;;;;5069207;28;20027;-64
2022/02/16 02:17:22;;;;;;;7.93;2.63;;;;;;;;;;5085918;28;20386;-64
2022/02/16 02:19:49;;;;;;;9.57;2.93;;;;;;;;;;5094770;28;20039;-64
2022/02/16 02:22:15;;;;;;;9.77;2.90;;;;;;;;;;5094708;28;20016;-64
2022/02/16 02:24:42;;;;;;;11.63;2.70;;;;;;;;;;5094665;28;20023;-64
2022/02/16 02:27:09;;;;;;;12.10;2.70;;;;;;;;;;5079795;28;20032;-64
2022/02/16 02:29:39;;;;;;;12.00;3.03;;;;;;;;;;5073588;28;20023;-65
2022/02/16 02:32:06;;;;;;;7.33;3.10;;;;;;;;;;5069004;28;20028;-65
2022/02/16 02:34:32;;;;;;;5.20;2.60;;;;;;;;;;5069227;28;20035;-64
2022/02/16 02:36:59;;;;;;;7.83;3.50;;;;;;;;;;5081306;28;20063;-64
2022/02/16 02:39:26;;;;;;;6.63;3.00;;;;;;;;;;5089212;28;20052;-65
2022/02/16 02:41:52;;;;;;;4.97;2.23;;;;;;;;;;5093941;28;20351;-65
2022/02/16 02:44:19;;;;;;;7.10;2.83;;;;;;;;;;5094480;28;20035;-64
2022/02/16 02:46:46;;;;;;;8.63;3.07;;;;;;;;;;5083368;28;20105;-64
2022/02/16 02:49:12;;;;;;;7.97;3.13;;;;;;;;;;5073785;28;20032;-64
2022/02/16 02:51:39;;;;;;;12.27;2.87;;;;;;;;;;5073708;28;20020;-64
2022/02/16 02:54:06;;;;;;;5.93;2.80;;;;;;;;;;5081158;28;20493;-64
2022/02/16 02:56:32;;;;;;;8.33;3.33;;;;;;;;;;5088547;28;20036;-64
2022/02/16 02:58:59;;;;;;;8.67;2.73;;;;;;;;;;5088386;28;20381;-64
2022/02/16 03:01:26;;;;;;;8.63;2.90;;;;;;;;;;5088694;28;20020;-65
2022/02/16 03:03:52;;;;;;;8.37;2.60;;;;;;;;;;5081768;28;20487;-63
2022/02/16 03:06:19;;;;;;;6.93;2.63;;;;;;;;;;5073515;28;20035;-64
2022/02/16 03:08:46;;;;;;;9.67;3.67;;;;;;;;;;5073582;28;20029;-64
2022/02/16 03:11:19;;;;;;;5.47;2.57;;;;;;;;;;5073462;28;20031;-64
2022/02/16 03:13:48;;;;;;;8.47;2.73;;;;;;;;;;5083279;28;20032;-64
2022/02/16 03:16:15;;;;;;;6.90;3.70;;;;;;;;;;5088216;28;20051;-64
2022/02/16 03:18:42;;;;;;;10.00;2.87;;;;;;;;;;5088313;28;20032;-64
2022/02/16 03:21:08;;;;;;;8.47;3.60;;;;;;;;;;5088397;28;20097;-63
2022/02/16 03:23:35;;;;;;;6.70;2.77;;;;;;;;;;5079359;28;20020;-63
2022/02/16 03:26:02;;;;;;;6.60;3.00;;;;;;;;;;5072778;28;20025;-64
2022/02/16 03:28:29;;;;;;;8.83;5.00;;;;;;;;;;5073266;28;20056;-64
2022/02/16 03:30:55;;;;;;;12.70;3.57;;;;;;;;;;5072772;28;20059;-63
2022/02/16 03:33:22;;;;;;;5.33;2.43;;;;;;;;;;5079305;28;20028;-63
2022/02/16 03:35:49;;;;;;;10.23;3.17;;;;;;;;;;5093211;28;20031;-63
2022/02/16 03:38:15;;;;;;;19.57;4.60;;;;;;;;;;5088276;28;20550;-64
2022/02/16 03:40:42;;;;;;;8.67;2.90;;;;;;;;;;5087756;28;20027;-63
2022/02/16 03:43:09;;;;;;;9.93;3.43;;;;;;;;;;5083267;28;20024;-63
2022/02/16 03:45:36;;;;;;;4.93;2.30;;;;;;;;;;5067483;28;20021;-63
2022/02/16 03:48:02;;;;;;;7.20;3.27;;;;;;;;;;5071359;28;20375;-63
2022/02/16 03:50:29;;;;;;;10.13;3.20;;;;;;;;;;5072930;28;20118;-63
2022/02/16 03:52:56;;;;;;;7.93;3.07;;;;;;;;;;5074630;28;20703;-63
2022/02/16 03:55:23;;;;;;;9.27;3.83;;;;;;;;;;5093188;28;20476;-63
2022/02/16 03:57:49;;;;;;;9.33;4.20;;;;;;;;;;5092872;28;20036;-63
2022/02/16 04:00:16;;;;;;;8.43;3.60;;;;;;;;;;5088522;28;20031;-63
2022/02/16 04:02:43;;;;;;;8.67;3.63;;;;;;;;;;5087129;28;20091;-64
2022/02/16 04:05:10;;;;;;;7.60;3.80;;;;;;;;;;5067012;28;20124;-63
2022/02/16 04:07:37;;;;;;;12.43;3.20;;;;;;;;;;5066759;28;20039;-63
2022/02/16 04:10:05;;;;;;;8.90;3.47;;;;;;;;;;5070804;28;21126;-63
2022/02/16 04:12:31;;;;;;;7.60;3.33;;;;;;;;;;5072546;28;20437;-63
2022/02/16 04:14:58;;;;;;;7.83;3.43;;;;;;;;;;5089496;28;20028;-63
2022/02/16 04:17:25;;;;;;;8.87;3.63;;;;;;;;;;5072338;28;20039;-63
2022/02/16 04:19:51;;;;;;;8.00;3.60;;;;;;;;;;5072190;28;20032;-64
2022/02/16 04:22:18;;;;;;;6.10;3.10;;;;;;;;;;5068594;28;20020;-63
2022/02/16 04:24:45;;;;;;;9.80;3.50;;;;;;;;;;5067203;28;20029;-63
2022/02/16 04:27:12;;;;;;;9.27;3.77;;;;;;;;;;5085179;28;20031;-63
2022/02/16 04:29:39;;;;;;;7.97;2.77;;;;;;;;;;5087275;28;20088;-63
2022/02/16 04:32:06;;;;;;;5.70;2.87;;;;;;;;;;5070951;28;20024;-63
2022/02/16 04:34:33;;;;;;;4.60;2.27;;;;;;;;;;5072231;28;20021;-63
2022/02/16 04:37:00;;;;;;;6.63;2.90;;;;;;;;;;5076330;28;20035;-63
2022/02/16 04:39:27;;;;;;;7.70;3.20;;;;;;;;;;5092658;28;20031;-63
2022/02/16 04:41:54;;;;;;;5.47;2.23;;;;;;;;;;5092356;28;20017;-64
2022/02/16 04:44:20;;;;;;;8.30;2.23;;;;;;;;;;5089138;28;20028;-63
2022/02/16 04:46:47;;;;;;;4.23;1.90;;;;;;;;;;5084722;28;20515;-63
2022/02/16 04:49:14;;;;;;;6.27;2.10;;;;;;;;;;5066637;28;20041;-63
2022/02/16 04:51:40;;;;;;;6.70;2.60;;;;;;;;;;5066497;28;20386;-63
2022/02/16 04:54:07;;;;;;;4.87;2.20;;;;;;;;;;5069659;28;20040;-63
2022/02/16 04:56:34;;;;;;;3.93;1.77;;;;;;;;;;5072105;28;20121;-64
2022/02/16 04:59:00;;;;;;;3.73;1.67;;;;;;;;;;5079489;28;20025;-63
2022/02/16 05:01:27;;;;;;;3.80;1.90;;;;;;;;;;5071939;28;20033;-64
2022/02/16 05:03:54;;;;;;;5.10;1.93;;;;;;;;;;5072010;28;20035;-63
2022/02/16 05:06:21;;;;;;;6.33;2.30;;;;;;;;;;5069213;28;20017;-64
2022/02/16 05:08:47;;;;;;;6.20;2.20;;;;;;;;;;5075633;28;20036;-63
2022/02/16 05:11:14;;;;;;;6.07;2.47;;;;;;;;;;5086947;28;20351;-63
2022/02/16 05:13:41;;;;;;;7.13;2.30;;;;;;;;;;5077319;28;20044;-64
2022/02/16 05:16:07;;;;;;;4.30;2.20;;;;;;;;;;5068425;28;20025;-63
2022/02/16 05:18:35;;;;;;;5.93;1.70;;;;;;;;;;5072948;28;20017;-63
2022/02/16 05:21:02;;;;;;;3.03;1.60;;;;;;;;;;5076140;28;20371;-63
2022/02/16 05:23:31;;;;;;;6.87;2.20;;;;;;;;;;5081901;28;20020;-64
2022/02/16 05:25:58;;;;;;;9.07;2.27;;;;;;;;;;5096076;28;20032;-64
2022/02/16 05:28:25;;;;;;;5.03;2.40;;;;;;;;;;5083959;28;20371;-63
2022/02/16 05:30:52;;;;;;;5.47;1.93;;;;;;;;;;5070645;28;20017;-63
2022/02/16 05:33:19;;;;;;;4.23;2.30;;;;;;;;;;5070368;28;20382;-64
2022/02/16 05:35:45;;;;;;;7.07;1.90;;;;;;;;;;5070157;28;20021;-63
2022/02/16 05:38:12;;;;;;;5.57;1.97;;;;;;;;;;5076299;28;20020;-63
2022/02/16 05:40:39;;;;;;;7.00;1.87;;;;;;;;;;5095046;28;20497;-64
2022/02/16 05:43:06;;;;;;;3.23;1.50;;;;;;;;;;5090625;28;20036;-63
2022/02/16 05:45:32;;;;;;;8.20;2.20;;;;;;;;;;5075181;28;20371;-63
2022/02/16 05:47:59;;;;;;;4.00;1.90;;;;;;;;;;5094348;28;20024;-64
2022/02/16 05:50:26;;;;;;;7.00;2.30;;;;;;;;;;5093451;28;20169;-64
2022/02/16 05:52:53;;;;;;;7.43;3.23;;;;;;;;;;5090200;28;20124;-63
2022/02/16 05:55:19;;;;;;;2.93;1.83;;;;;;;;;;5088049;28;20024;-63
2022/02/16 05:57:46;;;;;;;2.47;1.53;;;;;;;;;;5088730;28;20482;-62
2022/02/16 06:00:14;;;;;;;6.00;1.80;;;;;;;;;;5091129;28;20024;-62
2022/02/16 06:02:41;;;;;;;4.00;1.87;;;;;;;;;;5095411;28;20016;-62
2022/02/16 06:05:08;;;;;;;6.30;2.20;;;;;;;;;;5095126;28;20024;-61
2022/02/16 06:07:35;;;;;;;5.73;1.90;;;;;;;;;;5095238;28;20024;-62
2022/02/16 06:10:02;;;;;;;4.60;1.63;;;;;;;;;;5075528;28;20035;-63
2022/02/16 06:12:28;;;;;;;6.87;2.17;;;;;;;;;;5078102;28;20111;-64
2022/02/16 06:14:55;;;;;;;4.60;2.30;;;;;;;;;;5089430;28;20462;-63
2022/02/16 06:17:22;;;;;;;3.67;1.43;;;;;;;;;;5090028;28;20028;-65
2022/02/16 06:19:48;;;;;;;3.97;1.83;;;;;;;;;;5090185;28;20024;-65
2022/02/16 06:22:15;;;;;;;4.70;1.40;;;;;;;;;;5090482;28;20031;-65
2022/02/16 06:24:42;;;;;;;5.43;2.40;;;;;;;;;;5077720;28;20029;-63
2022/02/16 06:27:09;;;;;;;6.43;1.70;;;;;;;;;;5074365;28;20016;-64
2022/02/16 06:29:35;;;;;;;2.83;1.60;;;;;;;;;;5090825;28;20024;-63
2022/02/16 06:32:02;;;;;;;5.63;1.83;;;;;;;;;;5094805;28;20032;-62
2022/02/16 06:34:29;;;;;;;5.20;1.83;;;;;;;;;;5093786;28;20024;-62
2022/02/16 06:36:56;;;;;;;3.27;1.80;;;;;;;;;;5089022;28;20038;-63
2022/02/16 06:39:22;;;;;;;4.57;2.13;;;;;;;;;;5087335;28;20399;-63
2022/02/16 06:41:49;;;;;;;4.87;1.80;;;;;;;;;;5074101;28;20028;-64
2022/02/16 06:44:16;;;;;;;5.03;2.17;;;;;;;;;;5081675;28;20024;-63
2022/02/16 06:46:43;;;;;;;2.70;1.50;;;;;;;;;;5092326;28;20028;-64
2022/02/16 06:49:09;;;;;;;4.40;1.80;;;;;;;;;;5092540;28;20360;-63
2022/02/16 06:51:37;;;;;;;3.37;2.00;;;;;;;;;;5092876;28;20093;-64
2022/02/16 06:54:04;;;;;;;6.90;1.60;;;;;;;;;;5082136;28;20024;-63
2022/02/16 06:56:31;;;;;;;5.90;2.20;;;;;;;;;;5073465;28;20610;-63
2022/02/16 06:58:57;;;;;;;4.70;2.30;;;;;;;;;;5068449;28;20024;-63
2022/02/16 07:01:24;;;;;;;5.33;3.40;;;;;;;;;;5068635;28;20032;-63
2022/02/16 07:03:51;;;;;;;4.13;1.97;;;;;;;;;;5077821;28;20044;-63
2022/02/16 07:06:17;;;;;;;4.83;1.83;;;;;;;;;;5088786;28;20145;-63
2022/02/16 07:08:44;;;;;;;7.00;1.90;;;;;;;;;;5094067;28;20020;-63
2022/02/16 07:11:11;;;;;;;5.37;2.27;;;;;;;;;;5093914;28;20493;-63
2022/02/16 07:13:38;;;;;;;5.40;2.07;;;;;;;;;;5086167;28;20077;-63
2022/02/16 07:16:04;;;;;;;5.83;2.67;;;;;;;;;;5073028;28;20020;-63
2022/02/16 07:18:33;;;;;;;4.10;2.17;;;;;;;;;;5073621;28;20029;-63
2022/02/16 07:21:00;;;;;;;5.33;2.13;;;;;;;;;;5068226;28;20111;-63
2022/02/16 07:23:28;;;;;;;6.23;2.80;;;;;;;;;;5073570;28;20038;-63
2022/02/16 07:25:55;;;;;;;6.17;2.40;;;;;;;;;;5088643;28;20385;-63
2022/02/16 07:28:22;;;;;;;6.60;2.37;;;;;;;;;;5088281;28;20355;-63
2022/02/16 07:30:49;;;;;;;5.47;2.63;;;;;;;;;;5092922;28;20069;-64
2022/02/16 07:33:17;;;;;;;6.43;2.17;;;;;;;;;;5089441;28;20036;-63
2022/02/16 07:35:43;;;;;;;5.20;1.70;;;;;;;;;;5073221;28;20028;-63
2022/02/16 07:38:10;;;;;;;6.63;2.60;;;;;;;;;;5072923;28;20479;-62
2022/02/16 07:40:37;;;;;;;4.03;1.93;;;;;;;;;;5072727;28;20059;-63
2022/02/16 07:43:04;;;;;;;4.67;2.23;;;;;;;;;;5069290;28;20025;-63
2022/02/16 07:45:31;;;;;;;3.93;2.10;;;;;;;;;;5088235;28;20024;-63
2022/02/16 07:48:00;;;;;;;4.70;1.87;;;;;;;;;;5087636;28;20013;-63
2022/02/16 07:50:27;;;;;;;3.00;1.70;;;;;;;;;;5087944;28;20156;-63
2022/02/16 07:52:55;;;;;;;5.83;2.30;;;;;;;;;;5091568;28;20080;-64
2022/02/16 07:55:24;;;;;;;3.67;1.67;;;;;;;;;;5072713;28;20253;-63
2022/02/16 07:57:50;;;;;;;3.93;1.53;;;;;;;;;;5072836;28;20104;-63
2022/02/16 08:00:17;;;;;;;3.93;1.57;;;;;;;;;;5072800;28;20032;-63
2022/02/16 08:02:44;;;;;;;3.47;1.70;;;;;;;;;;5072408;28;20379;-64
2022/02/16 08:05:11;;;;;;;4.30;1.90;;;;;;;;;;5086974;28;20028;-63
2022/02/16 08:07:38;;;;;;;3.23;1.43;;;;;;;;;;5087699;28;20031;-63
2022/02/16 08:10:05;;;;;;;3.87;1.93;;;;;;;;;;5087758;28;20249;-63
2022/02/16 08:12:31;;;;;;;6.70;2.20;;;;;;;;;;5087311;28;20020;-63
2022/02/16 08:14:58;;;;;;;5.10;1.80;;;;;;;;;;5072843;28;20105;-63
2022/02/16 08:17:25;;;;;;;5.10;2.00;;;;;;;;;;5071931;28;20039;-63
2022/02/16 08:19:52;;;;;;;3.80;2.10;;;;;;;;;;5072615;28;20082;-63
2022/02/16 08:22:19;;;;;;;3.43;1.83;;;;;;;;;;5072536;28;20029;-62
2022/02/16 08:24:45;;;;;;;4.90;2.57;;;;;;;;;;5087642;28;20062;-62
2022/02/16 08:27:12;;;;;;;9.03;2.30;;;;;;;;;;5088401;28;20043;-62
2022/02/16 08:29:39;;;;;;;5.07;1.60;;;;;;;;;;5071686;28;20825;-63
2022/02/16 08:32:06;;;;;;;5.30;2.30;;;;;;;;;;5067205;28;20099;-63
2022/02/16 08:34:32;;;;;;;6.03;2.07;;;;;;;;;;5066783;28;20266;-62
2022/02/16 08:36:59;;;;;;;7.73;2.30;;;;;;;;;;5070473;28;20025;-63
2022/02/16 08:39:26;;;;;;;6.10;2.00;;;;;;;;;;5084875;28;20272;-62
2022/02/16 08:41:54;;;;;;;4.63;1.80;;;;;;;;;;5092513;28;20260;-62
2022/02/16 08:44:21;;;;;;;4.10;2.10;;;;;;;;;;5079176;28;20291;-63
2022/02/16 08:46:47;;;;;;;3.53;1.60;;;;;;;;;;5072085;28;20245;-62
2022/02/16 08:49:15;;;;;;;5.07;2.47;;;;;;;;;;5067847;28;20258;-63
2022/02/16 08:51:41;;;;;;;5.57;2.77;;;;;;;;;;5066909;28;20344;-64
2022/02/16 08:54:08;;;;;;;4.90;2.03;;;;;;;;;;5080613;28;20269;-62
2022/02/16 08:56:35;;;;;;;4.63;2.40;;;;;;;;;;5091150;28;20322;-62
2022/02/16 08:59:03;;;;;;;9.77;3.40;;;;;;;;;;5083913;28;20322;-62
2022/02/16 09:01:32;;;;;;;8.33;3.30;;;;;;;;;;5076208;28;20249;-63
2022/02/16 09:04:02;;;;;;;10.07;3.10;;;;;;;;;;5075601;28;20261;-63
2022/02/16 09:06:30;;;;;;;6.97;2.93;;;;;;;;;;5076096;28;20256;-62
2022/02/16 09:08:57;;;;;;;7.10;2.20;;;;;;;;;;5084384;28;20277;-62
2022/02/16 09:11:24;;;;;;;6.10;2.07;;;;;;;;;;5092335;28;20264;-63
2022/02/16 09:13:51;;;;;;;10.07;3.07;;;;;;;;;;5091009;28;20739;-62
2022/02/16 09:16:18;;;;;;;9.10;2.90;;;;;;;;;;5090856;28;20288;-62
2022/02/16 09:18:44;;;;;;;7.63;2.60;;;;;;;;;;5083368;28;20748;-62
2022/02/16 09:21:11;;;;;;;6.60;2.27;;;;;;;;;;5073363;28;20649;-63
2022/02/16 09:23:40;;;;;;;7.70;3.50;;;;;;;;;;5075671;28;20258;-63
2022/02/16 09:26:07;;;;;;;5.90;2.80;;;;;;;;;;5075649;28;20252;-62
2022/02/16 09:28:35;;;;;;;9.27;4.20;;;;;;;;;;5080300;28;20265;-62
2022/02/16 09:31:02;;;;;;;6.00;3.10;;;;;;;;;;5095805;28;20686;-62
2022/02/16 09:33:29;;;;;;;7.70;3.33;;;;;;;;;;5092119;28;20275;-63
2022/02/16 09:35:56;;;;;;;9.90;4.37;;;;;;;;;;5090548;28;20264;-62
2022/02/16 09:38:23;;;;;;;10.63;4.03;;;;;;;;;;5086867;28;20375;-63
2022/02/16 09:40:50;;;;;;;7.47;2.90;;;;;;;;;;5070083;28;20272;-62
2022/02/16 09:43:22;;;;;;;9.43;3.80;;;;;;;;;;5072984;28;20253;-62
2022/02/16 09:45:53;;;;;;;6.60;2.90;;;;;;;;;;5076366;28;20280;-62
2022/02/16 09:48:21;;;;;;;6.40;3.20;;;;;;;;;;5074802;28;20280;-62
2022/02/16 09:50:48;;;;;;;8.20;3.87;;;;;;;;;;5075160;28;20740;-62
2022/02/16 09:53:14;;;;;;;6.43;3.00;;;;;;;;;;5075259;28;20257;-62
2022/02/16 09:55:41;;;;;;;5.77;2.57;;;;;;;;;;5073895;28;20260;-62
2022/02/16 09:58:09;;;;;;;6.90;3.07;;;;;;;;;;5090061;28;20642;-62
2022/02/16 10:00:35;;;;;;;5.07;2.50;;;;;;;;;;5090059;28;20274;-62
2022/02/16 10:03:12;;;;;;;4.93;1.87;;;;;;;;;;5089630;28;20580;-62
2022/02/16 10:05:39;;;;;;;9.20;2.97;;;;;;;;;;5090265;28;20611;-63
2022/02/16 10:08:06;;;;;;;4.93;2.27;;;;;;;;;;5075084;28;20252;-62
2022/02/16 10:10:33;;;;;;;4.33;2.10;;;;;;;;;;5074811;28;20253;-62
2022/02/16 10:13:02;;;;;;;4.23;2.10;;;;;;;;;;5074671;28;20246;-62
2022/02/16 10:15:43;;;;;;;5.97;2.10;;;;;;;;;;5074581;28;20330;-64
2022/02/16 10:18:14;;;;;;;6.10;1.90;;;;;;;;;;5089838;28;20371;-62
2022/02/16 10:20:42;;;;;;;3.20;1.87;;;;;;;;;;5089754;28;20302;-63
2022/02/16 10:23:09;;;;;;;3.10;1.53;;;;;;;;;;5089781;28;20280;-62
2022/02/16 10:25:37;;;;;;;3.60;1.73;;;;;;;;;;5088028;28;21134;-62
2022/02/16 10:28:16;;;;;;;4.87;1.50;;;;;;;;;;5072392;28;20254;-63
2022/02/16 10:30:56;;;;;;;3.13;1.63;;;;;;;;;;5074450;28;20249;-62
2022/02/16 10:33:30;;;;;;;3.00;1.47;;;;;;;;;;5074361;28;20624;-62
2022/02/16 10:36:18;;;;;;;2.97;1.57;;;;;;;;;;5077724;28;20748;-62
2022/02/16 10:38:57;;;;;;;5.87;1.60;;;;;;;;;;5093964;28;20763;-62
2022/02/16 10:41:27;;;;;;;5.87;2.10;;;;;;;;;;5089266;28;20827;-62
2022/02/16 10:43:55;;;;;;;4.17;1.83;;;;;;;;;;5088976;28;20347;-63
2022/02/16 10:46:29;;;;;;;6.53;2.30;;;;;;;;;;5081432;28;20269;-62
2022/02/16 10:49:12;;;;;;;5.33;1.97;;;;;;;;;;5069774;28;20254;-62
2022/02/16 10:51:39;;;;;;;4.27;2.03;;;;;;;;;;5074015;28;20293;-62
2022/02/16 10:54:22;;;;;;;3.57;1.83;;;;;;;;;;5073616;28;20256;-62
2022/02/16 10:56:50;;;;;;;6.33;1.70;;;;;;;;;;5084723;28;20296;-62
2022/02/16 10:59:17;;;;;;;4.97;2.30;;;;;;;;;;5094266;28;20287;-62
2022/02/16 11:01:45;;;;;;;3.33;1.80;;;;;;;;;;5091634;28;20267;-63
2022/02/16 11:04:13;;;;;;;5.37;1.73;;;;;;;;;;5088715;28;20264;-63
2022/02/16 11:06:50;;;;;;;4.00;1.73;;;;;;;;;;5078357;28;20269;-62
2022/02/16 11:09:22;;;;;;;3.50;1.73;;;;;;;;;;5068727;28;20596;-62
2022/02/16 11:11:51;;;;;;;3.30;1.40;;;;;;;;;;5070899;28;20281;-62
2022/02/16 11:14:21;;;;;;;4.93;1.77;;;;;;;;;;5092637;28;20343;-62
2022/02/16 11:16:49;;;;;;;3.23;1.60;;;;;;;;;;5092410;28;20371;-62
2022/02/16 11:19:29;;;;;;;4.50;1.80;;;;;;;;;;5093594;28;20253;-62
2022/02/16 11:22:04;;;;;;;2.97;1.30;;;;;;;;;;5093743;28;20288;-62
2022/02/16 11:24:31;;;;;;;3.07;1.53;;;;;;;;;;5069706;28;20670;-62
2022/02/16 11:26:58;;;;;;;5.43;2.20;;;;;;;;;;5067846;28;20661;-63
2022/02/16 11:29:28;;;;;;;4.80;1.97;;;;;;;;;;5067997;28;20262;-62
2022/02/16 11:32:15;;;;;;;2.63;1.40;;;;;;;;;;5067978;28;20261;-62
2022/02/16 11:34:48;;;;;;;5.73;2.77;;;;;;;;;;5071671;28;20257;-62
2022/02/16 11:37:33;;;;;;;3.00;1.67;;;;;;;;;;5072394;28;20293;-62
2022/02/16 11:40:01;;;;;;;4.95;1.98;;;;;;;;;;5073244;28;20261;-62
2022/02/16 11:42:46;;;;;;;4.23;1.67;;;;;;;;;;5075335;28;20062;-62
2022/02/16 11:45:12;;;;;;;3.75;1.60;;;;;;;;;;5092180;28;20264;-62
2022/02/16 11:47:42;;;;;;;5.27;1.80;;;;;;;;;;5088022;28;20024;-62
2022/02/16 11:50:09;;;;;;;3.60;1.70;;;;;;;;;;5087930;28;20822;-62
2022/02/16 11:52:37;;;;;;;4.87;1.90;;;;;;;;;;5084222;28;20268;-62
2022/02/16 11:55:05;;;;;;;3.83;1.67;;;;;;;;;;5067480;28;20265;-62
2022/02/16 11:57:38;;;;;;;3.03;1.50;;;;;;;;;;5072775;28;20288;-62
2022/02/16 12:00:13;;;;;;;2.93;1.60;;;;;;;;;;5072692;28;20258;-62
2022/02/16 12:02:59;;;;;;;2.53;1.52;;;;;;;;;;5076240;28;20268;-62
2022/02/16 12:05:55;;;;;;;4.73;2.27;;;;;;;;;;5092973;28;20020;-62
2022/02/16 12:08:39;;;;;;;3.90;2.20;;;;;;;;;;5090360;28;20265;-62
2022/02/16 12:11:20;;;;;;;4.00;1.70;;;;;;;;;;5087598;28;20016;-62
2022/02/16 12:13:46;;;;;;;3.23;1.50;;;;;;;;;;5074300;28;20269;-62
2022/02/16 12:16:16;;;;;;;5.67;1.60;;;;;;;;;;5067394;28;20261;-62
2022/02/16 12:18:43;;;;;;;4.17;1.87;;;;;;;;;;5070183;28;20261;-62
2022/02/16 12:21:10;;;;;;;3.47;1.53;;;;;;;;;;5072743;28;20687;-62
2022/02/16 12:23:41;;;;;;;4.47;1.83;;;;;;;;;;5081558;28;20281;-62
2022/02/16 12:26:16;;;;;;;3.60;1.20;;;;;;;;;;5092868;28;20240;-62
2022/02/16 12:28:55;;;;;;;5.22;2.00;;;;;;;;;;5092189;28;20265;-62
2022/02/16 12:31:23;;;;;;;3.43;1.47;;;;;;;;;;5088340;28;20016;-62
2022/02/16 12:33:58;;;;;;;5.93;1.40;;;;;;;;;;5074141;28;20270;-62
2022/02/16 12:36:25;;;;;;;3.33;1.65;;;;;;;;;;5085462;28;20343;-63
2022/02/16 12:38:54;;;;;;;4.57;2.00;;;;;;;;;;5087195;28;20024;-62
2022/02/16 12:41:21;;;;;;;3.57;2.00;;;;;;;;;;5091229;28;20403;-62
2022/02/16 12:43:59;;;;;;;5.10;1.70;;;;;;;;;;5092366;28;20245;-62
2022/02/16 12:46:27;;;;;;;3.33;1.63;;;;;;;;;;5073898;28;20276;-62
2022/02/16 12:48:54;;;;;;;3.77;1.60;;;;;;;;;;5072176;28;20276;-62
2022/02/16 12:51:30;;;;;;;3.47;2.00;;;;;;;;;;5072022;28;20281;-62
2022/02/16 12:54:07;;;;;;;3.60;1.80;;;;;;;;;;5066976;28;20261;-62
2022/02/16 12:56:35;;;;;;;3.00;1.60;;;;;;;;;;5068006;28;20036;-62
2022/02/16 12:59:17;;;;;;;3.17;1.77;;;;;;;;;;5086992;28;20287;-63
2022/02/16 13:01:44;;;;;;;4.97;2.10;;;;;;;;;;5087030;28;20253;-62
2022/02/16 13:04:14;;;;;;;4.20;1.90;;;;;;;;;;5092140;28;20248;-62
2022/02/16 13:06:42;;;;;;;6.17;1.87;;;;;;;;;;5092331;28;20581;-62
2022/02/16 13:09:09;;;;;;;7.27;1.80;;;;;;;;;;5083269;28;20249;-62
2022/02/16 13:11:43;;;;;;;7.47;1.90;;;;;;;;;;5072000;28;20258;-63
2022/02/16 13:14:11;;;;;;;4.23;1.97;;;;;;;;;;5071022;28;20272;-62
2022/02/16 13:16:38;;;;;;;2.83;1.60;;;;;;;;;;5066546;28;20917;-62
2022/02/16 13:19:04;;;;;;;3.67;2.10;;;;;;;;;;5066523;28;20347;-62
2022/02/16 13:21:31;;;;;;;5.70;1.67;;;;;;;;;;5079524;28;20367;-62
2022/02/16 13:24:05;;;;;;;3.17;1.57;;;;;;;;;;5084285;28;20265;-62
2022/02/16 13:26:41;;;;;;;3.43;1.80;;;;;;;;;;5071821;28;20808;-62
2022/02/16 13:29:08;;;;;;;4.03;1.60;;;;;;;;;;5071750;28;20724;-62
2022/02/16 13:31:36;;;;;;;2.90;1.50;;;;;;;;;;5072812;28;20268;-62
2022/02/16 13:34:04;;;;;;;5.93;2.40;;;;;;;;;;5071649;28;20601;-62
2022/02/16 13:36:36;;;;;;;3.87;2.00;;;;;;;;;;5070226;28;20351;-62
2022/02/16 13:39:16;;;;;;;3.10;1.73;;;;;;;;;;5066688;28;20293;-62
2022/02/16 13:42:01;;;;;;;6.83;2.17;;;;;;;;;;5081362;28;20273;-62
2022/02/16 13:44:36;;;;;;;8.43;2.33;;;;;;;;;;5090613;28;20271;-62
2022/02/16 13:47:04;;;;;;;4.50;1.97;;;;;;;;;;5093092;28;20450;-62
2022/02/16 13:49:32;;;;;;;3.70;1.93;;;;;;;;;;5095526;28;20260;-62
2022/02/16 13:52:00;;;;;;;6.53;2.73;;;;;;;;;;5095117;28;20291;-62
2022/02/16 13:54:29;;;;;;;7.07;2.50;;;;;;;;;;5077122;28;20773;-62
2022/02/16 13:56:59;;;;;;;8.27;3.07;;;;;;;;;;5075053;28;20866;-63
2022/02/16 13:59:27;;;;;;;9.10;2.83;;;;;;;;;;5072262;28;20269;-63
2022/02/16 14:02:06;;;;;;;11.07;3.57;;;;;;;;;;5069799;28;20319;-63
2022/02/16 14:04:35;;;;;;;8.10;4.20;;;;;;;;;;5071057;28;20412;-63
2022/02/16 14:07:03;;;;;;;11.93;3.10;;;;;;;;;;5089507;28;20273;-63
2022/02/16 14:09:30;;;;;;;7.60;3.80;;;;;;;;;;5092638;28;20264;-63
2022/02/16 14:11:57;;;;;;;6.60;4.20;;;;;;;;;;5095159;28;20028;-64
2022/02/16 14:14:24;;;;;;;9.90;3.87;;;;;;;;;;5095119;28;20055;-63
2022/02/16 14:16:51;;;;;;;6.90;3.80;;;;;;;;;;5093226;28;20032;-63
2022/02/16 14:19:23;;;;;;;9.87;4.20;;;;;;;;;;5094582;28;20036;-63
2022/02/16 14:21:52;;;;;;;9.47;3.37;;;;;;;;;;5091314;28;20046;-63
2022/02/16 14:24:19;;;;;;;11.93;3.60;;;;;;;;;;5088600;28;20020;-64
2022/02/16 14:26:46;;;;;;;7.57;2.93;;;;;;;;;;5088366;28;20089;-64
2022/02/16 14:29:12;;;;;;;5.63;2.70;;;;;;;;;;5089618;28;20475;-64
2022/02/16 14:31:39;;;;;;;7.93;2.63;;;;;;;;;;5090464;28;20016;-64
2022/02/16 14:34:06;;;;;;;6.57;2.40;;;;;;;;;;5074552;28;20020;-63
2022/02/16 14:36:36;;;;;;;7.17;2.50;;;;;;;;;;5074380;28;20103;-64
2022/02/16 14:39:06;;;;;;;11.33;2.70;;;;;;;;;;5074290;28;20135;-64
2022/02/16 14:41:34;;;;;;;6.47;2.30;;;;;;;;;;5074087;28;20582;-65
2022/02/16 14:44:00;;;;;;;3.07;1.77;;;;;;;;;;5089817;28;20097;-64
2022/02/16 14:46:28;;;;;;;3.30;1.70;;;;;;;;;;5088731;28;20529;-64